sensor_id;sensor_type;location;lat;lon;timestamp;P1;durP1;ratioP1;P2;durP2;ratioP2
14736;SDS011;7459;53.590;10.062;2023-04-09T00:02:17;62.50;;;24.13;;
14736;SDS011;7459;53.590;10.062;2023-04-09T00:04:42;57.53;;;24.00;;
14736;SDS011;7459;53.590;10.062;2023-04-09T00:07:08;54.97;;;24.87;;
14736;SDS011;7459;53.590;10.062;2023-04-09T00:09:34;63.85;;;24.70;;
14736;SDS011;7459;53.590;10.062;2023-04-09T00:12:00;57.47;;;23.55;;
14736;SDS011;7459;53.590;10.062;2023-04-09T00:14:26;55.03;;;24.20;;
14736;SDS011;7459;53.590;10.062;2023-04-09T00:16:51;54.40;;;24.27;;
14736;SDS011;7459;53.590;10.062;2023-04-09T00:19:18;55.63;;;23.77;;
14736;SDS011;7459;53.590;10.062;2023-04-09T00:21:44;57.47;;;23.52;;
14736;SDS011;7459;53.590;10.062;2023-04-09T00:24:10;55.05;;;23.35;;
14736;SDS011;7459;53.590;10.062;2023-04-09T00:26:36;54.13;;;23.80;;
14736;SDS011;7459;53.590;10.062;2023-04-09T00:29:01;57.58;;;23.92;;
14736;SDS011;7459;53.590;10.062;2023-04-09T00:31:27;58.37;;;23.73;;
14736;SDS011;7459;53.590;10.062;2023-04-09T00:33:53;54.78;;;24.15;;
14736;SDS011;7459;53.590;10.062;2023-04-09T00:36:18;62.67;;;22.40;;
14736;SDS011;7459;53.590;10.062;2023-04-09T00:38:44;61.58;;;22.15;;
14736;SDS011;7459;53.590;10.062;2023-04-09T00:41:11;54.53;;;22.75;;
14736;SDS011;7459;53.590;10.062;2023-04-09T00:43:37;56.00;;;23.23;;
14736;SDS011;7459;53.590;10.062;2023-04-09T00:46:03;60.60;;;23.80;;
14736;SDS011;7459;53.590;10.062;2023-04-09T00:48:29;53.92;;;21.98;;
14736;SDS011;7459;53.590;10.062;2023-04-09T00:50:55;54.90;;;23.00;;
14736;SDS011;7459;53.590;10.062;2023-04-09T00:53:21;52.00;;;21.73;;
14736;SDS011;7459;53.590;10.062;2023-04-09T00:55:46;56.15;;;23.65;;
14736;SDS011;7459;53.590;10.062;2023-04-09T00:58:12;53.90;;;23.03;;
14736;SDS011;7459;53.590;10.062;2023-04-09T01:00:38;56.85;;;22.80;;
14736;SDS011;7459;53.590;10.062;2023-04-09T01:03:04;56.92;;;23.65;;
14736;SDS011;7459;53.590;10.062;2023-04-09T01:05:37;54.85;;;23.77;;
14736;SDS011;7459;53.590;10.062;2023-04-09T01:13:51;58.83;;;23.15;;
14736;SDS011;7459;53.590;10.062;2023-04-09T01:16:28;62.67;;;24.33;;
14736;SDS011;7459;53.590;10.062;2023-04-09T01:18:56;58.72;;;22.90;;
14736;SDS011;7459;53.590;10.062;2023-04-09T01:21:29;62.10;;;23.77;;
14736;SDS011;7459;53.590;10.062;2023-04-09T01:27:05;60.00;;;24.58;;
14736;SDS011;7459;53.590;10.062;2023-04-09T01:29:37;60.97;;;23.17;;
14736;SDS011;7459;53.590;10.062;2023-04-09T01:32:07;58.63;;;23.25;;
14736;SDS011;7459;53.590;10.062;2023-04-09T01:34:34;67.40;;;23.33;;
14736;SDS011;7459;53.590;10.062;2023-04-09T01:37:01;61.85;;;23.90;;
14736;SDS011;7459;53.590;10.062;2023-04-09T01:39:27;63.95;;;23.88;;
14736;SDS011;7459;53.590;10.062;2023-04-09T01:41:54;60.38;;;23.33;;
14736;SDS011;7459;53.590;10.062;2023-04-09T01:44:23;61.08;;;23.50;;
14736;SDS011;7459;53.590;10.062;2023-04-09T01:46:50;57.80;;;23.10;;
14736;SDS011;7459;53.590;10.062;2023-04-09T01:49:17;57.05;;;23.98;;
14736;SDS011;7459;53.590;10.062;2023-04-09T01:51:43;54.72;;;23.35;;
14736;SDS011;7459;53.590;10.062;2023-04-09T01:54:09;59.17;;;23.60;;
14736;SDS011;7459;53.590;10.062;2023-04-09T01:56:39;57.20;;;22.67;;
14736;SDS011;7459;53.590;10.062;2023-04-09T01:59:09;54.60;;;22.27;;
14736;SDS011;7459;53.590;10.062;2023-04-09T02:04:45;56.53;;;21.15;;
14736;SDS011;7459;53.590;10.062;2023-04-09T02:07:06;54.20;;;21.17;;
14736;SDS011;7459;53.590;10.062;2023-04-09T02:09:41;56.42;;;22.08;;
14736;SDS011;7459;53.590;10.062;2023-04-09T02:12:11;55.97;;;22.35;;
14736;SDS011;7459;53.590;10.062;2023-04-09T02:14:40;52.72;;;22.30;;
14736;SDS011;7459;53.590;10.062;2023-04-09T02:17:06;55.42;;;21.02;;
14736;SDS011;7459;53.590;10.062;2023-04-09T02:19:39;57.40;;;21.55;;
14736;SDS011;7459;53.590;10.062;2023-04-09T02:22:10;55.38;;;20.67;;
14736;SDS011;7459;53.590;10.062;2023-04-09T02:24:36;56.28;;;21.83;;
14736;SDS011;7459;53.590;10.062;2023-04-09T02:27:02;53.88;;;21.45;;
14736;SDS011;7459;53.590;10.062;2023-04-09T02:29:30;53.35;;;20.85;;
14736;SDS011;7459;53.590;10.062;2023-04-09T02:31:55;52.30;;;21.25;;
14736;SDS011;7459;53.590;10.062;2023-04-09T02:34:21;58.92;;;21.02;;
14736;SDS011;7459;53.590;10.062;2023-04-09T02:36:48;55.65;;;21.80;;
14736;SDS011;7459;53.590;10.062;2023-04-09T02:39:13;51.25;;;20.70;;
14736;SDS011;7459;53.590;10.062;2023-04-09T02:41:39;49.30;;;21.13;;
14736;SDS011;7459;53.590;10.062;2023-04-09T02:44:05;55.53;;;21.60;;
14736;SDS011;7459;53.590;10.062;2023-04-09T02:46:31;54.38;;;21.77;;
14736;SDS011;7459;53.590;10.062;2023-04-09T02:48:57;57.95;;;21.25;;
14736;SDS011;7459;53.590;10.062;2023-04-09T02:51:22;65.85;;;22.63;;
14736;SDS011;7459;53.590;10.062;2023-04-09T02:53:48;66.03;;;22.88;;
14736;SDS011;7459;53.590;10.062;2023-04-09T02:56:14;70.22;;;23.90;;
14736;SDS011;7459;53.590;10.062;2023-04-09T02:58:39;65.47;;;23.80;;
14736;SDS011;7459;53.590;10.062;2023-04-09T03:01:05;73.88;;;23.42;;
14736;SDS011;7459;53.590;10.062;2023-04-09T03:03:31;77.45;;;25.83;;
14736;SDS011;7459;53.590;10.062;2023-04-09T03:05:57;73.50;;;25.55;;
14736;SDS011;7459;53.590;10.062;2023-04-09T03:08:22;66.03;;;24.40;;
14736;SDS011;7459;53.590;10.062;2023-04-09T03:10:48;74.40;;;25.67;;
14736;SDS011;7459;53.590;10.062;2023-04-09T03:13:14;71.57;;;24.10;;
14736;SDS011;7459;53.590;10.062;2023-04-09T03:15:39;67.75;;;23.88;;
14736;SDS011;7459;53.590;10.062;2023-04-09T03:18:05;69.10;;;24.43;;
14736;SDS011;7459;53.590;10.062;2023-04-09T03:20:31;69.63;;;24.33;;
14736;SDS011;7459;53.590;10.062;2023-04-09T03:22:57;66.30;;;22.63;;
14736;SDS011;7459;53.590;10.062;2023-04-09T03:25:22;65.40;;;23.30;;
14736;SDS011;7459;53.590;10.062;2023-04-09T03:27:48;67.07;;;23.10;;
14736;SDS011;7459;53.590;10.062;2023-04-09T03:30:14;64.60;;;22.77;;
14736;SDS011;7459;53.590;10.062;2023-04-09T03:32:39;64.97;;;22.63;;
14736;SDS011;7459;53.590;10.062;2023-04-09T03:35:05;66.20;;;23.15;;
14736;SDS011;7459;53.590;10.062;2023-04-09T03:37:31;59.80;;;22.27;;
14736;SDS011;7459;53.590;10.062;2023-04-09T03:39:57;60.50;;;22.25;;
14736;SDS011;7459;53.590;10.062;2023-04-09T03:42:22;58.67;;;22.70;;
14736;SDS011;7459;53.590;10.062;2023-04-09T03:44:48;62.42;;;23.50;;
14736;SDS011;7459;53.590;10.062;2023-04-09T03:47:14;63.40;;;21.75;;
14736;SDS011;7459;53.590;10.062;2023-04-09T03:49:39;63.88;;;22.83;;
14736;SDS011;7459;53.590;10.062;2023-04-09T03:52:05;60.40;;;24.53;;
14736;SDS011;7459;53.590;10.062;2023-04-09T03:54:31;65.88;;;24.30;;
14736;SDS011;7459;53.590;10.062;2023-04-09T03:56:57;57.13;;;23.30;;
14736;SDS011;7459;53.590;10.062;2023-04-09T03:59:22;57.47;;;22.27;;
14736;SDS011;7459;53.590;10.062;2023-04-09T04:01:48;67.72;;;23.10;;
14736;SDS011;7459;53.590;10.062;2023-04-09T04:04:14;59.78;;;23.80;;
14736;SDS011;7459;53.590;10.062;2023-04-09T04:06:40;59.43;;;21.60;;
14736;SDS011;7459;53.590;10.062;2023-04-09T04:09:06;60.83;;;22.05;;
14736;SDS011;7459;53.590;10.062;2023-04-09T04:11:31;62.00;;;22.00;;
14736;SDS011;7459;53.590;10.062;2023-04-09T04:13:57;60.90;;;21.52;;
14736;SDS011;7459;53.590;10.062;2023-04-09T04:16:24;61.92;;;21.73;;
14736;SDS011;7459;53.590;10.062;2023-04-09T04:18:50;63.00;;;22.70;;
14736;SDS011;7459;53.590;10.062;2023-04-09T04:21:16;60.03;;;21.42;;
14736;SDS011;7459;53.590;10.062;2023-04-09T04:23:41;51.83;;;20.63;;
14736;SDS011;7459;53.590;10.062;2023-04-09T04:26:07;56.97;;;22.00;;
14736;SDS011;7459;53.590;10.062;2023-04-09T04:28:35;60.38;;;20.52;;
14736;SDS011;7459;53.590;10.062;2023-04-09T04:31:01;55.42;;;20.85;;
14736;SDS011;7459;53.590;10.062;2023-04-09T04:33:27;56.28;;;21.83;;
14736;SDS011;7459;53.590;10.062;2023-04-09T04:35:52;59.85;;;21.95;;
14736;SDS011;7459;53.590;10.062;2023-04-09T04:38:18;54.72;;;21.40;;
14736;SDS011;7459;53.590;10.062;2023-04-09T04:40:44;59.70;;;22.02;;
14736;SDS011;7459;53.590;10.062;2023-04-09T04:43:09;60.78;;;22.50;;
14736;SDS011;7459;53.590;10.062;2023-04-09T04:45:35;54.25;;;23.20;;
14736;SDS011;7459;53.590;10.062;2023-04-09T04:48:01;63.17;;;23.07;;
14736;SDS011;7459;53.590;10.062;2023-04-09T04:50:27;55.55;;;21.98;;
14736;SDS011;7459;53.590;10.062;2023-04-09T04:52:52;63.70;;;22.30;;
14736;SDS011;7459;53.590;10.062;2023-04-09T04:55:18;55.13;;;20.53;;
14736;SDS011;7459;53.590;10.062;2023-04-09T04:57:43;57.28;;;22.10;;
14736;SDS011;7459;53.590;10.062;2023-04-09T05:00:09;59.90;;;21.80;;
14736;SDS011;7459;53.590;10.062;2023-04-09T05:02:36;59.85;;;22.52;;
14736;SDS011;7459;53.590;10.062;2023-04-09T05:05:02;63.47;;;24.25;;
14736;SDS011;7459;53.590;10.062;2023-04-09T05:07:28;61.07;;;22.17;;
14736;SDS011;7459;53.590;10.062;2023-04-09T05:09:53;60.30;;;22.30;;
14736;SDS011;7459;53.590;10.062;2023-04-09T05:12:19;66.53;;;22.80;;
14736;SDS011;7459;53.590;10.062;2023-04-09T05:14:45;61.35;;;21.63;;
14736;SDS011;7459;53.590;10.062;2023-04-09T05:17:11;55.83;;;21.42;;
14736;SDS011;7459;53.590;10.062;2023-04-09T05:19:37;56.67;;;21.35;;
14736;SDS011;7459;53.590;10.062;2023-04-09T05:22:02;58.50;;;20.60;;
14736;SDS011;7459;53.590;10.062;2023-04-09T05:24:28;56.92;;;22.42;;
14736;SDS011;7459;53.590;10.062;2023-04-09T05:26:54;61.10;;;23.70;;
14736;SDS011;7459;53.590;10.062;2023-04-09T05:29:20;62.67;;;22.15;;
14736;SDS011;7459;53.590;10.062;2023-04-09T05:31:45;55.78;;;20.58;;
14736;SDS011;7459;53.590;10.062;2023-04-09T05:34:11;66.33;;;25.47;;
14736;SDS011;7459;53.590;10.062;2023-04-09T05:36:37;61.55;;;23.90;;
14736;SDS011;7459;53.590;10.062;2023-04-09T05:39:02;68.30;;;23.63;;
14736;SDS011;7459;53.590;10.062;2023-04-09T05:41:28;66.30;;;22.27;;
14736;SDS011;7459;53.590;10.062;2023-04-09T05:43:54;62.17;;;22.63;;
14736;SDS011;7459;53.590;10.062;2023-04-09T05:46:19;60.33;;;21.63;;
14736;SDS011;7459;53.590;10.062;2023-04-09T05:48:45;59.03;;;22.42;;
14736;SDS011;7459;53.590;10.062;2023-04-09T05:51:11;55.73;;;21.33;;
14736;SDS011;7459;53.590;10.062;2023-04-09T05:53:36;53.42;;;19.10;;
14736;SDS011;7459;53.590;10.062;2023-04-09T05:56:02;54.37;;;21.33;;
14736;SDS011;7459;53.590;10.062;2023-04-09T05:58:37;53.33;;;20.27;;
14736;SDS011;7459;53.590;10.062;2023-04-09T06:01:03;55.10;;;20.73;;
14736;SDS011;7459;53.590;10.062;2023-04-09T06:03:29;54.13;;;21.50;;
14736;SDS011;7459;53.590;10.062;2023-04-09T06:05:54;62.72;;;23.00;;
14736;SDS011;7459;53.590;10.062;2023-04-09T06:08:20;59.73;;;21.50;;
14736;SDS011;7459;53.590;10.062;2023-04-09T06:10:46;65.40;;;21.80;;
14736;SDS011;7459;53.590;10.062;2023-04-09T06:13:12;66.60;;;24.60;;
14736;SDS011;7459;53.590;10.062;2023-04-09T06:15:37;71.43;;;23.23;;
14736;SDS011;7459;53.590;10.062;2023-04-09T06:18:03;67.10;;;23.95;;
14736;SDS011;7459;53.590;10.062;2023-04-09T06:20:29;71.10;;;24.73;;
14736;SDS011;7459;53.590;10.062;2023-04-09T06:22:55;73.85;;;24.80;;
14736;SDS011;7459;53.590;10.062;2023-04-09T06:25:21;64.63;;;22.10;;
14736;SDS011;7459;53.590;10.062;2023-04-09T06:27:46;69.28;;;24.10;;
14736;SDS011;7459;53.590;10.062;2023-04-09T06:30:12;63.87;;;22.33;;
14736;SDS011;7459;53.590;10.062;2023-04-09T06:32:38;67.15;;;23.23;;
14736;SDS011;7459;53.590;10.062;2023-04-09T06:35:03;66.83;;;23.30;;
14736;SDS011;7459;53.590;10.062;2023-04-09T06:37:32;60.80;;;22.05;;
14736;SDS011;7459;53.590;10.062;2023-04-09T06:39:58;64.03;;;23.20;;
14736;SDS011;7459;53.590;10.062;2023-04-09T06:42:24;66.25;;;23.92;;
14736;SDS011;7459;53.590;10.062;2023-04-09T06:44:50;68.95;;;22.38;;
14736;SDS011;7459;53.590;10.062;2023-04-09T06:47:16;66.57;;;22.15;;
14736;SDS011;7459;53.590;10.062;2023-04-09T06:49:42;65.20;;;23.23;;
14736;SDS011;7459;53.590;10.062;2023-04-09T06:52:07;64.07;;;23.25;;
14736;SDS011;7459;53.590;10.062;2023-04-09T06:54:33;69.73;;;22.10;;
14736;SDS011;7459;53.590;10.062;2023-04-09T06:56:59;58.38;;;22.10;;
14736;SDS011;7459;53.590;10.062;2023-04-09T06:59:25;64.97;;;21.97;;
14736;SDS011;7459;53.590;10.062;2023-04-09T07:01:51;66.03;;;21.80;;
14736;SDS011;7459;53.590;10.062;2023-04-09T07:04:17;61.50;;;22.17;;
14736;SDS011;7459;53.590;10.062;2023-04-09T07:06:42;64.15;;;21.58;;
14736;SDS011;7459;53.590;10.062;2023-04-09T07:09:08;70.28;;;24.35;;
14736;SDS011;7459;53.590;10.062;2023-04-09T07:11:34;57.77;;;21.03;;
14736;SDS011;7459;53.590;10.062;2023-04-09T07:13:59;59.90;;;21.65;;
14736;SDS011;7459;53.590;10.062;2023-04-09T07:16:25;61.10;;;22.23;;
14736;SDS011;7459;53.590;10.062;2023-04-09T07:18:51;66.27;;;21.90;;
14736;SDS011;7459;53.590;10.062;2023-04-09T07:21:16;64.03;;;21.98;;
14736;SDS011;7459;53.590;10.062;2023-04-09T07:23:43;61.42;;;21.92;;
14736;SDS011;7459;53.590;10.062;2023-04-09T07:26:08;63.07;;;19.80;;
14736;SDS011;7459;53.590;10.062;2023-04-09T07:28:34;62.30;;;21.88;;
14736;SDS011;7459;53.590;10.062;2023-04-09T07:31:00;52.05;;;19.42;;
14736;SDS011;7459;53.590;10.062;2023-04-09T07:33:28;63.15;;;21.73;;
14736;SDS011;7459;53.590;10.062;2023-04-09T07:35:54;60.40;;;20.33;;
14736;SDS011;7459;53.590;10.062;2023-04-09T07:38:20;58.65;;;20.63;;
14736;SDS011;7459;53.590;10.062;2023-04-09T07:40:46;62.90;;;20.90;;
14736;SDS011;7459;53.590;10.062;2023-04-09T07:43:12;57.85;;;19.10;;
14736;SDS011;7459;53.590;10.062;2023-04-09T07:45:38;59.83;;;19.17;;
14736;SDS011;7459;53.590;10.062;2023-04-09T07:48:03;58.00;;;19.70;;
14736;SDS011;7459;53.590;10.062;2023-04-09T07:50:29;51.63;;;19.67;;
14736;SDS011;7459;53.590;10.062;2023-04-09T07:52:55;51.27;;;20.00;;
14736;SDS011;7459;53.590;10.062;2023-04-09T07:55:21;58.45;;;18.38;;
14736;SDS011;7459;53.590;10.062;2023-04-09T07:57:46;50.90;;;17.67;;
14736;SDS011;7459;53.590;10.062;2023-04-09T08:00:12;61.58;;;20.08;;
14736;SDS011;7459;53.590;10.062;2023-04-09T08:02:38;53.08;;;18.00;;
14736;SDS011;7459;53.590;10.062;2023-04-09T08:05:04;53.87;;;18.73;;
14736;SDS011;7459;53.590;10.062;2023-04-09T08:07:31;60.80;;;19.85;;
14736;SDS011;7459;53.590;10.062;2023-04-09T08:09:57;57.75;;;19.80;;
14736;SDS011;7459;53.590;10.062;2023-04-09T08:12:23;59.60;;;20.53;;
14736;SDS011;7459;53.590;10.062;2023-04-09T08:14:48;55.93;;;18.60;;
14736;SDS011;7459;53.590;10.062;2023-04-09T08:17:14;49.33;;;17.48;;
14736;SDS011;7459;53.590;10.062;2023-04-09T08:19:40;52.25;;;18.40;;
14736;SDS011;7459;53.590;10.062;2023-04-09T08:22:05;52.87;;;18.13;;
14736;SDS011;7459;53.590;10.062;2023-04-09T08:24:31;51.45;;;17.92;;
14736;SDS011;7459;53.590;10.062;2023-04-09T08:26:57;51.25;;;17.73;;
14736;SDS011;7459;53.590;10.062;2023-04-09T08:29:22;41.70;;;16.33;;
14736;SDS011;7459;53.590;10.062;2023-04-09T08:31:48;37.78;;;15.25;;
14736;SDS011;7459;53.590;10.062;2023-04-09T08:34:14;39.97;;;14.63;;
14736;SDS011;7459;53.590;10.062;2023-04-09T08:36:43;39.45;;;16.10;;
14736;SDS011;7459;53.590;10.062;2023-04-09T08:39:10;38.00;;;15.17;;
14736;SDS011;7459;53.590;10.062;2023-04-09T08:41:36;41.30;;;14.95;;
14736;SDS011;7459;53.590;10.062;2023-04-09T08:44:08;36.65;;;15.00;;
14736;SDS011;7459;53.590;10.062;2023-04-09T08:46:34;39.57;;;14.50;;
14736;SDS011;7459;53.590;10.062;2023-04-09T08:49:01;40.13;;;16.02;;
14736;SDS011;7459;53.590;10.062;2023-04-09T08:51:27;39.33;;;14.25;;
14736;SDS011;7459;53.590;10.062;2023-04-09T08:53:56;43.70;;;14.63;;
14736;SDS011;7459;53.590;10.062;2023-04-09T08:56:24;45.17;;;15.38;;
14736;SDS011;7459;53.590;10.062;2023-04-09T08:58:50;37.53;;;14.25;;
14736;SDS011;7459;53.590;10.062;2023-04-09T09:01:18;38.00;;;14.55;;
14736;SDS011;7459;53.590;10.062;2023-04-09T09:04:02;36.00;;;14.18;;
14736;SDS011;7459;53.590;10.062;2023-04-09T09:06:33;32.72;;;13.32;;
14736;SDS011;7459;53.590;10.062;2023-04-09T09:09:07;33.50;;;13.63;;
14736;SDS011;7459;53.590;10.062;2023-04-09T09:11:39;31.90;;;11.55;;
14736;SDS011;7459;53.590;10.062;2023-04-09T09:14:07;38.05;;;14.00;;
14736;SDS011;7459;53.590;10.062;2023-04-09T09:16:34;32.92;;;12.35;;
14736;SDS011;7459;53.590;10.062;2023-04-09T09:19:09;34.42;;;12.18;;
14736;SDS011;7459;53.590;10.062;2023-04-09T09:21:59;29.67;;;12.82;;
14736;SDS011;7459;53.590;10.062;2023-04-09T09:24:27;33.72;;;12.45;;
14736;SDS011;7459;53.590;10.062;2023-04-09T09:26:56;34.35;;;13.32;;
14736;SDS011;7459;53.590;10.062;2023-04-09T09:29:22;35.17;;;12.63;;
14736;SDS011;7459;53.590;10.062;2023-04-09T09:31:49;36.83;;;13.40;;
14736;SDS011;7459;53.590;10.062;2023-04-09T09:34:21;31.50;;;12.40;;
14736;SDS011;7459;53.590;10.062;2023-04-09T09:36:48;36.25;;;13.23;;
14736;SDS011;7459;53.590;10.062;2023-04-09T09:39:14;31.05;;;12.98;;
14736;SDS011;7459;53.590;10.062;2023-04-09T09:41:42;30.65;;;13.05;;
14736;SDS011;7459;53.590;10.062;2023-04-09T09:44:10;28.00;;;11.23;;
14736;SDS011;7459;53.590;10.062;2023-04-09T09:46:40;31.10;;;12.75;;
14736;SDS011;7459;53.590;10.062;2023-04-09T09:49:06;28.05;;;13.77;;
14736;SDS011;7459;53.590;10.062;2023-04-09T09:51:34;28.48;;;12.48;;
14736;SDS011;7459;53.590;10.062;2023-04-09T09:54:01;27.73;;;11.32;;
14736;SDS011;7459;53.590;10.062;2023-04-09T09:56:32;25.23;;;11.83;;
14736;SDS011;7459;53.590;10.062;2023-04-09T09:59:01;31.98;;;11.95;;
14736;SDS011;7459;53.590;10.062;2023-04-09T10:01:36;27.30;;;12.02;;
14736;SDS011;7459;53.590;10.062;2023-04-09T10:04:04;26.30;;;12.13;;
14736;SDS011;7459;53.590;10.062;2023-04-09T10:06:37;29.48;;;11.68;;
14736;SDS011;7459;53.590;10.062;2023-04-09T10:09:07;29.67;;;12.38;;
14736;SDS011;7459;53.590;10.062;2023-04-09T10:11:34;25.98;;;10.60;;
14736;SDS011;7459;53.590;10.062;2023-04-09T10:14:02;24.08;;;11.30;;
14736;SDS011;7459;53.590;10.062;2023-04-09T10:16:29;25.10;;;10.38;;
14736;SDS011;7459;53.590;10.062;2023-04-09T10:18:56;25.40;;;11.53;;
14736;SDS011;7459;53.590;10.062;2023-04-09T10:21:25;24.70;;;10.43;;
14736;SDS011;7459;53.590;10.062;2023-04-09T10:24:07;24.85;;;11.65;;
14736;SDS011;7459;53.590;10.062;2023-04-09T10:26:33;24.70;;;11.38;;
14736;SDS011;7459;53.590;10.062;2023-04-09T10:29:07;24.77;;;11.68;;
14736;SDS011;7459;53.590;10.062;2023-04-09T10:34:28;27.27;;;11.77;;
14736;SDS011;7459;53.590;10.062;2023-04-09T10:36:57;23.70;;;11.13;;
14736;SDS011;7459;53.590;10.062;2023-04-09T10:39:27;24.42;;;11.60;;
14736;SDS011;7459;53.590;10.062;2023-04-09T10:41:57;27.25;;;11.95;;
14736;SDS011;7459;53.590;10.062;2023-04-09T10:44:26;24.50;;;11.35;;
14736;SDS011;7459;53.590;10.062;2023-04-09T10:46:55;25.15;;;11.35;;
14736;SDS011;7459;53.590;10.062;2023-04-09T10:49:22;23.98;;;11.48;;
14736;SDS011;7459;53.590;10.062;2023-04-09T10:52:00;24.67;;;11.45;;
14736;SDS011;7459;53.590;10.062;2023-04-09T10:59:31;25.40;;;12.05;;
14736;SDS011;7459;53.590;10.062;2023-04-09T11:01:58;27.98;;;11.98;;
14736;SDS011;7459;53.590;10.062;2023-04-09T11:04:24;26.07;;;11.20;;
14736;SDS011;7459;53.590;10.062;2023-04-09T11:07:15;22.10;;;11.20;;
14736;SDS011;7459;53.590;10.062;2023-04-09T11:09:42;30.40;;;11.48;;
14736;SDS011;7459;53.590;10.062;2023-04-09T11:12:10;28.10;;;12.00;;
14736;SDS011;7459;53.590;10.062;2023-04-09T11:14:35;24.52;;;11.38;;
14736;SDS011;7459;53.590;10.062;2023-04-09T11:17:04;25.77;;;11.93;;
14736;SDS011;7459;53.590;10.062;2023-04-09T11:19:32;31.38;;;12.45;;
14736;SDS011;7459;53.590;10.062;2023-04-09T11:21:58;26.08;;;11.32;;
14736;SDS011;7459;53.590;10.062;2023-04-09T11:24:24;26.05;;;11.25;;
14736;SDS011;7459;53.590;10.062;2023-04-09T11:26:49;23.77;;;11.50;;
14736;SDS011;7459;53.590;10.062;2023-04-09T11:29:15;26.00;;;11.32;;
14736;SDS011;7459;53.590;10.062;2023-04-09T11:31:44;24.85;;;12.13;;
14736;SDS011;7459;53.590;10.062;2023-04-09T11:34:10;25.67;;;12.00;;
14736;SDS011;7459;53.590;10.062;2023-04-09T11:36:39;26.55;;;11.23;;
14736;SDS011;7459;53.590;10.062;2023-04-09T11:39:05;24.77;;;12.00;;
14736;SDS011;7459;53.590;10.062;2023-04-09T11:41:34;28.03;;;11.73;;
14736;SDS011;7459;53.590;10.062;2023-04-09T11:44:04;21.38;;;10.60;;
14736;SDS011;7459;53.590;10.062;2023-04-09T11:46:32;27.17;;;11.98;;
14736;SDS011;7459;53.590;10.062;2023-04-09T11:48:59;25.92;;;11.52;;
14736;SDS011;7459;53.590;10.062;2023-04-09T11:51:25;26.77;;;11.43;;
14736;SDS011;7459;53.590;10.062;2023-04-09T11:53:52;22.73;;;11.47;;
14736;SDS011;7459;53.590;10.062;2023-04-09T11:56:18;27.38;;;12.82;;
14736;SDS011;7459;53.590;10.062;2023-04-09T11:58:47;29.45;;;12.93;;
14736;SDS011;7459;53.590;10.062;2023-04-09T12:01:14;26.98;;;13.23;;
14736;SDS011;7459;53.590;10.062;2023-04-09T12:03:40;23.33;;;10.63;;
14736;SDS011;7459;53.590;10.062;2023-04-09T12:06:06;23.67;;;10.63;;
14736;SDS011;7459;53.590;10.062;2023-04-09T12:08:33;24.50;;;11.68;;
14736;SDS011;7459;53.590;10.062;2023-04-09T12:11:06;26.20;;;12.45;;
14736;SDS011;7459;53.590;10.062;2023-04-09T12:13:34;24.70;;;12.98;;
14736;SDS011;7459;53.590;10.062;2023-04-09T12:15:59;24.20;;;11.80;;
14736;SDS011;7459;53.590;10.062;2023-04-09T12:18:27;26.17;;;12.75;;
14736;SDS011;7459;53.590;10.062;2023-04-09T12:20:53;26.98;;;12.18;;
14736;SDS011;7459;53.590;10.062;2023-04-09T12:23:18;26.03;;;11.80;;
14736;SDS011;7459;53.590;10.062;2023-04-09T12:25:44;26.33;;;13.23;;
14736;SDS011;7459;53.590;10.062;2023-04-09T12:28:11;26.67;;;14.27;;
14736;SDS011;7459;53.590;10.062;2023-04-09T12:30:42;26.73;;;13.37;;
14736;SDS011;7459;53.590;10.062;2023-04-09T12:33:08;26.10;;;12.15;;
14736;SDS011;7459;53.590;10.062;2023-04-09T12:35:34;26.83;;;12.85;;
14736;SDS011;7459;53.590;10.062;2023-04-09T12:38:02;25.90;;;13.35;;
14736;SDS011;7459;53.590;10.062;2023-04-09T12:40:29;28.23;;;13.05;;
14736;SDS011;7459;53.590;10.062;2023-04-09T12:42:54;29.20;;;12.73;;
14736;SDS011;7459;53.590;10.062;2023-04-09T12:45:20;27.35;;;12.45;;
14736;SDS011;7459;53.590;10.062;2023-04-09T12:47:46;24.65;;;11.55;;
14736;SDS011;7459;53.590;10.062;2023-04-09T12:50:12;21.73;;;10.53;;
14736;SDS011;7459;53.590;10.062;2023-04-09T12:52:40;21.65;;;10.82;;
14736;SDS011;7459;53.590;10.062;2023-04-09T12:55:06;22.55;;;10.73;;
14736;SDS011;7459;53.590;10.062;2023-04-09T12:57:33;24.27;;;11.13;;
14736;SDS011;7459;53.590;10.062;2023-04-09T12:59:59;23.90;;;10.50;;
14736;SDS011;7459;53.590;10.062;2023-04-09T13:02:24;23.33;;;10.93;;
14736;SDS011;7459;53.590;10.062;2023-04-09T13:04:50;26.08;;;11.27;;
14736;SDS011;7459;53.590;10.062;2023-04-09T13:07:17;22.47;;;10.43;;
14736;SDS011;7459;53.590;10.062;2023-04-09T13:09:46;19.35;;;10.43;;
14736;SDS011;7459;53.590;10.062;2023-04-09T13:12:15;22.23;;;10.68;;
14736;SDS011;7459;53.590;10.062;2023-04-09T13:14:42;22.00;;;10.50;;
14736;SDS011;7459;53.590;10.062;2023-04-09T13:17:10;25.10;;;10.70;;
14736;SDS011;7459;53.590;10.062;2023-04-09T13:19:36;19.43;;;10.13;;
14736;SDS011;7459;53.590;10.062;2023-04-09T13:22:01;23.75;;;10.88;;
14736;SDS011;7459;53.590;10.062;2023-04-09T13:24:29;22.40;;;10.65;;
14736;SDS011;7459;53.590;10.062;2023-04-09T13:26:55;21.77;;;10.73;;
14736;SDS011;7459;53.590;10.062;2023-04-09T13:29:21;24.05;;;11.05;;
14736;SDS011;7459;53.590;10.062;2023-04-09T13:31:47;20.67;;;10.60;;
14736;SDS011;7459;53.590;10.062;2023-04-09T13:34:13;24.00;;;10.30;;
14736;SDS011;7459;53.590;10.062;2023-04-09T13:36:38;24.10;;;10.45;;
14736;SDS011;7459;53.590;10.062;2023-04-09T13:39:04;23.53;;;10.43;;
14736;SDS011;7459;53.590;10.062;2023-04-09T13:41:33;22.55;;;11.15;;
14736;SDS011;7459;53.590;10.062;2023-04-09T13:43:59;23.13;;;10.27;;
14736;SDS011;7459;53.590;10.062;2023-04-09T13:46:25;26.67;;;11.80;;
14736;SDS011;7459;53.590;10.062;2023-04-09T13:48:52;23.23;;;10.97;;
14736;SDS011;7459;53.590;10.062;2023-04-09T13:51:18;23.88;;;10.80;;
14736;SDS011;7459;53.590;10.062;2023-04-09T13:53:49;22.98;;;11.18;;
14736;SDS011;7459;53.590;10.062;2023-04-09T13:56:16;23.95;;;10.80;;
14736;SDS011;7459;53.590;10.062;2023-04-09T13:58:42;23.30;;;11.67;;
14736;SDS011;7459;53.590;10.062;2023-04-09T14:01:08;24.60;;;12.00;;
14736;SDS011;7459;53.590;10.062;2023-04-09T14:03:35;24.23;;;11.65;;
14736;SDS011;7459;53.590;10.062;2023-04-09T14:06:04;21.00;;;10.77;;
14736;SDS011;7459;53.590;10.062;2023-04-09T14:08:31;23.85;;;10.88;;
14736;SDS011;7459;53.590;10.062;2023-04-09T14:10:57;21.50;;;10.43;;
14736;SDS011;7459;53.590;10.062;2023-04-09T14:13:22;20.50;;;10.00;;
14736;SDS011;7459;53.590;10.062;2023-04-09T14:15:48;22.27;;;11.77;;
14736;SDS011;7459;53.590;10.062;2023-04-09T14:18:14;23.17;;;10.35;;
14736;SDS011;7459;53.590;10.062;2023-04-09T14:20:40;25.43;;;10.23;;
14736;SDS011;7459;53.590;10.062;2023-04-09T14:23:05;26.38;;;11.02;;
14736;SDS011;7459;53.590;10.062;2023-04-09T14:25:31;26.60;;;11.57;;
14736;SDS011;7459;53.590;10.062;2023-04-09T14:27:57;25.35;;;11.55;;
14736;SDS011;7459;53.590;10.062;2023-04-09T14:30:23;26.07;;;12.20;;
14736;SDS011;7459;53.590;10.062;2023-04-09T14:32:48;21.80;;;11.25;;
14736;SDS011;7459;53.590;10.062;2023-04-09T14:35:14;22.73;;;11.37;;
14736;SDS011;7459;53.590;10.062;2023-04-09T14:37:40;23.85;;;10.90;;
14736;SDS011;7459;53.590;10.062;2023-04-09T14:40:06;24.40;;;12.20;;